Time,TemperatureF,DewpointF,PressureIn,WindDirection,WindDirectionDegrees,WindSpeedMPH,WindSpeedGustMPH,Humidity,HourlyPrecipIn,Conditions,Clouds,dailyrainin,SoftwareType,DateUTC
2013-08-18 00:03:00,59.5,58.0,30.23,WNW,302,0.0,0.0,93,0.00,,,0.00,weatherlink.com 1.10,2013-08-18 04:03:00,
2013-08-18 00:18:00,59.4,57.0,30.22,WNW,302,0.0,0.0,93,0.00,,,0.00,weatherlink.com 1.10,2013-08-18 04:18:00,
2013-08-18 00:33:00,59.4,57.0,30.22,WNW,302,0.0,0.0,93,0.00,,,0.00,weatherlink.com 1.10,2013-08-18 04:33:00,
2013-08-18 00:48:00,59.4,57.0,30.22,WNW,302,0.0,0.0,93,0.00,,,0.00,weatherlink.com 1.10,2013-08-18 04:48:00,
2013-08-18 01:04:00,59.6,58.0,30.22,WNW,302,0.0,0.0,93,0.00,,,0.00,weatherlink.com 1.10,2013-08-18 05:04:00,
2013-08-18 01:19:00,59.5,58.0,30.21,WNW,302,0.0,0.0,93,0.00,,,0.00,weatherlink.com 1.10,2013-08-18 05:19:00,
2013-08-18 01:34:00,59.5,58.0,30.22,WNW,302,0.0,0.0,93,0.00,,,0.00,weatherlink.com 1.10,2013-08-18 05:34:00,
2013-08-18 01:49:00,59.6,58.0,30.22,WNW,302,0.0,0.0,93,0.00,,,0.00,weatherlink.com 1.10,2013-08-18 05:49:00,
2013-08-18 02:04:00,59.5,58.0,30.21,WNW,302,0.0,0.0,93,0.00,,,0.00,weatherlink.com 1.10,2013-08-18 06:04:00,
2013-08-18 02:19:00,59.3,57.0,30.21,WNW,302,0.0,0.0,93,0.00,,,0.00,weatherlink.com 1.10,2013-08-18 06:19:00,
2013-08-18 02:34:00,59.3,57.0,30.21,WNW,302,0.0,0.0,93,0.00,,,0.00,weatherlink.com 1.10,2013-08-18 06:34:00,
2013-08-18 02:49:00,59.5,58.0,30.21,WNW,302,0.0,0.0,93,0.00,,,0.00,weatherlink.com 1.10,2013-08-18 06:49:00,
2013-08-18 03:04:00,59.3,57.0,30.21,WNW,302,0.0,0.0,93,0.00,,,0.00,weatherlink.com 1.10,2013-08-18 07:04:00,
2013-08-18 03:19:00,59.2,57.0,30.21,WNW,302,0.0,0.0,93,0.00,,,0.00,weatherlink.com 1.10,2013-08-18 07:19:00,
2013-08-18 03:34:00,59.4,57.0,30.20,WNW,302,0.0,0.0,93,0.00,,,0.00,weatherlink.com 1.10,2013-08-18 07:34:00,
2013-08-18 03:49:00,59.4,57.0,30.20,WNW,302,0.0,0.0,93,0.00,,,0.00,weatherlink.com 1.10,2013-08-18 07:49:00,
2013-08-18 04:04:00,59.6,58.0,30.20,WNW,302,0.0,0.0,94,0.00,,,0.00,weatherlink.com 1.10,2013-08-18 08:04:00,
2013-08-18 04:19:00,59.7,58.0,30.20,WNW,302,0.0,0.0,93,0.00,,,0.00,weatherlink.com 1.10,2013-08-18 08:19:00,
2013-08-18 04:34:00,59.7,58.0,30.20,WNW,302,0.0,0.0,93,0.00,,,0.00,weatherlink.com 1.10,2013-08-18 08:34:00,
2013-08-18 04:49:00,59.9,58.0,30.20,WNW,302,0.0,0.0,94,0.00,,,0.00,weatherlink.com 1.10,2013-08-18 08:49:00,
2013-08-18 05:04:00,60.1,58.0,30.20,WNW,302,0.0,0.0,94,0.00,,,0.00,weatherlink.com 1.10,2013-08-18 09:04:00,
2013-08-18 05:19:00,60.3,59.0,30.20,WNW,302,0.0,0.0,94,0.00,,,0.00,weatherlink.com 1.10,2013-08-18 09:19:00,
2013-08-18 05:34:00,60.5,59.0,30.20,WNW,302,0.0,0.0,94,0.00,,,0.00,weatherlink.com 1.10,2013-08-18 09:34:00,
2013-08-18 05:49:00,60.7,59.0,30.20,WNW,302,0.0,0.0,93,0.00,,,0.00,weatherlink.com 1.10,2013-08-18 09:49:00,
2013-08-18 06:04:00,61.1,59.0,30.21,WNW,302,0.0,0.0,93,0.00,,,0.00,weatherlink.com 1.10,2013-08-18 10:04:00,
2013-08-18 06:19:00,61.2,59.0,30.21,WNW,302,0.0,0.0,93,0.00,,,0.00,weatherlink.com 1.10,2013-08-18 10:19:00,
2013-08-18 06:34:00,61.2,59.0,30.21,WNW,302,0.0,0.0,93,0.00,,,0.00,weatherlink.com 1.10,2013-08-18 10:34:00,
2013-08-18 06:49:00,61.4,59.0,30.22,WNW,302,0.0,0.0,93,0.00,,,0.00,weatherlink.com 1.10,2013-08-18 10:49:00,
2013-08-18 07:04:00,61.5,60.0,30.22,WNW,302,0.0,0.0,93,0.00,,,0.00,weatherlink.com 1.10,2013-08-18 11:04:00,
2013-08-18 07:19:00,61.7,60.0,30.23,WNW,302,0.0,0.0,93,0.00,,,0.00,weatherlink.com 1.10,2013-08-18 11:19:00,
2013-08-18 07:34:00,62.0,60.0,30.23,WNW,302,0.0,0.0,93,0.00,,,0.00,weatherlink.com 1.10,2013-08-18 11:34:00,
2013-08-18 07:49:00,62.1,60.0,30.22,WNW,302,0.0,0.0,93,0.00,,,0.00,weatherlink.com 1.10,2013-08-18 11:49:00,
2013-08-18 08:04:00,62.0,60.0,30.22,WNW,302,0.0,0.0,92,0.00,,,0.00,weatherlink.com 1.10,2013-08-18 12:04:00,
2013-08-18 08:19:00,63.0,60.0,30.24,WNW,302,0.0,1.0,90,0.00,,,0.00,weatherlink.com 1.10,2013-08-18 12:19:00,
2013-08-18 08:34:00,63.2,60.0,30.24,ENE,64,0.0,1.0,90,0.00,,,0.00,weatherlink.com 1.10,2013-08-18 12:34:00,
2013-08-18 08:49:00,63.5,61.0,30.24,ENE,64,0.0,0.0,91,0.00,,,0.00,weatherlink.com 1.10,2013-08-18 12:49:00,
2013-08-18 09:04:00,63.1,59.0,30.25,East,90,2.0,3.0,87,0.00,,,0.00,weatherlink.com 1.10,2013-08-18 13:04:00,
2013-08-18 09:19:00,62.1,59.0,30.24,NE,44,0.0,4.0,89,0.01,,,0.01,weatherlink.com 1.10,2013-08-18 13:19:00,
2013-08-18 09:34:00,61.6,59.0,30.25,ENE,77,0.0,1.0,91,0.01,,,0.01,weatherlink.com 1.10,2013-08-18 13:34:00,
2013-08-18 09:49:00,61.9,60.0,30.25,East,91,0.0,0.0,92,0.01,,,0.01,weatherlink.com 1.10,2013-08-18 13:49:00,
2013-08-18 10:04:00,62.6,61.0,30.24,East,87,0.0,0.0,93,0.01,,,0.01,weatherlink.com 1.10,2013-08-18 14:04:00,
2013-08-18 10:19:00,63.2,61.0,30.25,ENE,75,1.0,1.0,92,0.00,,,0.01,weatherlink.com 1.10,2013-08-18 14:19:00,
2013-08-18 10:34:00,63.5,61.0,30.24,East,98,1.0,2.0,90,0.00,,,0.01,weatherlink.com 1.10,2013-08-18 14:34:00,
2013-08-18 10:49:00,64.0,61.0,30.25,ENE,60,1.0,3.0,89,0.00,,,0.01,weatherlink.com 1.10,2013-08-18 14:49:00,
2013-08-18 11:04:00,64.1,60.0,30.25,ENE,57,0.0,3.0,87,0.00,,,0.01,weatherlink.com 1.10,2013-08-18 15:04:00,
2013-08-18 11:19:00,64.2,60.0,30.25,ENE,57,4.0,4.0,85,0.00,,,0.01,weatherlink.com 1.10,2013-08-18 15:19:00,
2013-08-18 11:34:00,65.0,60.0,30.24,East,81,1.0,2.0,84,0.00,,,0.01,weatherlink.com 1.10,2013-08-18 15:34:00,
2013-08-18 11:49:00,65.5,60.0,30.24,East,87,2.0,4.0,81,0.00,,,0.01,weatherlink.com 1.10,2013-08-18 15:49:00,
2013-08-18 12:04:00,65.8,60.0,30.23,ENE,65,0.0,4.0,81,0.00,,,0.01,weatherlink.com 1.10,2013-08-18 16:04:00,
2013-08-18 12:20:00,66.7,60.0,30.24,East,91,0.0,4.0,78,0.00,,,0.01,weatherlink.com 1.10,2013-08-18 16:20:00,
2013-08-18 12:35:00,67.0,60.0,30.23,ENE,78,0.0,3.0,77,0.00,,,0.01,weatherlink.com 1.10,2013-08-18 16:35:00,
2013-08-18 12:50:00,67.0,59.0,30.23,ENE,75,2.0,4.0,76,0.00,,,0.01,weatherlink.com 1.10,2013-08-18 16:50:00,
2013-08-18 13:05:00,67.0,58.0,30.23,ESE,108,3.0,6.0,74,0.00,,,0.01,weatherlink.com 1.10,2013-08-18 17:05:00,
2013-08-18 13:20:00,67.8,60.0,30.22,ENE,58,4.0,5.0,75,0.00,,,0.01,weatherlink.com 1.10,2013-08-18 17:20:00,
2013-08-18 13:35:00,68.9,60.0,30.21,East,90,5.0,5.0,73,0.00,,,0.01,weatherlink.com 1.10,2013-08-18 17:35:00,
2013-08-18 13:50:00,69.4,60.0,30.21,ENE,70,0.0,6.0,73,0.00,,,0.01,weatherlink.com 1.10,2013-08-18 17:50:00,
2013-08-18 14:05:00,70.9,61.0,30.21,NE,56,0.0,4.0,71,0.00,,,0.01,weatherlink.com 1.10,2013-08-18 18:05:00,
2013-08-18 14:20:00,70.6,60.0,30.21,East,97,1.0,4.0,70,0.00,,,0.01,weatherlink.com 1.10,2013-08-18 18:20:00,
2013-08-18 14:35:00,70.6,61.0,30.20,NE,47,0.0,4.0,72,0.00,,,0.01,weatherlink.com 1.10,2013-08-18 18:35:00,
2013-08-18 14:50:00,70.8,62.0,30.21,NE,43,0.0,3.0,73,0.00,,,0.01,weatherlink.com 1.10,2013-08-18 18:50:00,
2013-08-18 15:05:00,71.1,62.0,30.20,ENE,72,0.0,3.0,72,0.00,,,0.01,weatherlink.com 1.10,2013-08-18 19:05:00,
2013-08-18 15:20:00,70.7,62.0,30.20,ENE,65,1.0,2.0,74,0.00,,,0.01,weatherlink.com 1.10,2013-08-18 19:20:00,
2013-08-18 15:35:00,70.4,63.0,30.19,East,92,0.0,1.0,76,0.00,,,0.01,weatherlink.com 1.10,2013-08-18 19:35:00,
2013-08-18 15:50:00,70.6,62.0,30.19,East,86,0.0,2.0,74,0.00,,,0.01,weatherlink.com 1.10,2013-08-18 19:50:00,
2013-08-18 16:05:00,70.6,62.0,30.18,ENE,63,0.0,3.0,73,0.00,,,0.01,weatherlink.com 1.10,2013-08-18 20:05:00,
2013-08-18 16:20:00,70.8,63.0,30.18,East,93,0.0,2.0,75,0.00,,,0.01,weatherlink.com 1.10,2013-08-18 20:20:00,
2013-08-18 16:35:00,71.2,63.0,30.18,ENE,60,0.0,1.0,75,0.00,,,0.01,weatherlink.com 1.10,2013-08-18 20:35:00,
2013-08-18 16:50:00,71.4,63.0,30.18,East,86,0.0,2.0,74,0.00,,,0.01,weatherlink.com 1.10,2013-08-18 20:50:00,
2013-08-18 17:05:00,71.4,62.0,30.17,ENE,57,0.0,1.0,73,0.00,,,0.01,weatherlink.com 1.10,2013-08-18 21:05:00,
2013-08-18 17:20:00,71.6,63.0,30.17,East,81,1.0,2.0,74,0.00,,,0.01,weatherlink.com 1.10,2013-08-18 21:20:00,
2013-08-18 17:35:00,71.7,63.0,30.17,NE,54,0.0,3.0,74,0.00,,,0.01,weatherlink.com 1.10,2013-08-18 21:35:00,
2013-08-18 17:50:00,71.3,64.0,30.17,East,82,0.0,1.0,77,0.00,,,0.01,weatherlink.com 1.10,2013-08-18 21:50:00,
2013-08-18 18:05:00,71.0,64.0,30.17,East,82,0.0,0.0,78,0.00,,,0.01,weatherlink.com 1.10,2013-08-18 22:05:00,
2013-08-18 18:20:00,70.7,63.0,30.16,East,82,0.0,0.0,77,0.00,,,0.01,weatherlink.com 1.10,2013-08-18 22:20:00,
2013-08-18 18:35:00,70.2,65.0,30.16,East,82,0.0,0.0,82,0.00,,,0.01,weatherlink.com 1.10,2013-08-18 22:35:00,
2013-08-18 18:50:00,69.3,64.0,30.16,East,82,0.0,0.0,84,0.00,,,0.01,weatherlink.com 1.10,2013-08-18 22:50:00,
2013-08-18 19:05:00,68.7,64.0,30.16,East,82,0.0,0.0,85,0.00,,,0.01,weatherlink.com 1.10,2013-08-18 23:05:00,
2013-08-18 19:20:00,68.4,64.0,30.16,East,82,0.0,0.0,86,0.00,,,0.01,weatherlink.com 1.10,2013-08-18 23:20:00,
2013-08-18 19:35:00,67.6,63.0,30.16,East,82,0.0,1.0,86,0.00,,,0.01,weatherlink.com 1.10,2013-08-18 23:35:00,
2013-08-18 19:50:00,67.1,63.0,30.16,East,82,0.0,0.0,87,0.00,,,0.01,weatherlink.com 1.10,2013-08-18 23:50:00,
2013-08-18 20:05:00,66.6,63.0,30.16,East,82,0.0,0.0,87,0.00,,,0.01,weatherlink.com 1.10,2013-08-19 00:05:00,
2013-08-18 20:20:00,66.3,63.0,30.16,East,82,0.0,0.0,88,0.00,,,0.01,weatherlink.com 1.10,2013-08-19 00:20:00,
2013-08-18 20:35:00,66.0,63.0,30.16,East,82,0.0,0.0,89,0.00,,,0.01,weatherlink.com 1.10,2013-08-19 00:35:00,
2013-08-18 20:50:00,65.5,63.0,30.16,East,82,0.0,0.0,90,0.00,,,0.01,weatherlink.com 1.10,2013-08-19 00:50:00,
2013-08-18 21:05:00,65.0,62.0,30.16,East,82,0.0,0.0,91,0.00,,,0.01,weatherlink.com 1.10,2013-08-19 01:05:00,
2013-08-18 21:20:00,64.4,62.0,30.16,East,82,0.0,0.0,92,0.00,,,0.01,weatherlink.com 1.10,2013-08-19 01:20:00,
2013-08-18 21:35:00,63.9,62.0,30.16,East,82,0.0,0.0,93,0.00,,,0.01,weatherlink.com 1.10,2013-08-19 01:35:00,
2013-08-18 21:50:00,63.6,62.0,30.16,East,82,0.0,0.0,93,0.00,,,0.01,weatherlink.com 1.10,2013-08-19 01:50:00,
2013-08-18 22:05:00,63.2,61.0,30.17,East,82,0.0,0.0,93,0.00,,,0.01,weatherlink.com 1.10,2013-08-19 02:05:00,
2013-08-18 22:20:00,63.0,61.0,30.16,East,80,0.0,0.0,94,0.00,,,0.01,weatherlink.com 1.10,2013-08-19 02:20:00,
2013-08-18 22:35:00,63.0,61.0,30.16,East,81,0.0,0.0,94,0.00,,,0.01,weatherlink.com 1.10,2013-08-19 02:35:00,
2013-08-18 22:50:00,62.9,61.0,30.16,ENE,75,0.0,0.0,94,0.00,,,0.01,weatherlink.com 1.10,2013-08-19 02:50:00,
2013-08-18 23:05:00,62.6,61.0,30.16,ENE,75,0.0,0.0,94,0.00,,,0.01,weatherlink.com 1.10,2013-08-19 03:05:00,
2013-08-18 23:20:00,62.4,61.0,30.16,ENE,75,0.0,0.0,94,0.00,,,0.01,weatherlink.com 1.10,2013-08-19 03:20:00,
2013-08-18 23:35:00,62.3,61.0,30.16,ENE,75,0.0,0.0,94,0.00,,,0.01,weatherlink.com 1.10,2013-08-19 03:35:00,
2013-08-18 23:50:00,61.9,60.0,30.16,ENE,75,0.0,0.0,94,0.00,,,0.01,weatherlink.com 1.10,2013-08-19 03:50:00,